OJAQ/AQJ METAR and TAF weather

Enter ICAO airport designator
Station Type Date Time Source
OJAQ METAR 2019/10/21 02:00 UTC NOAA

OJAQ 210200Z 36004KT CAVOK 25/15 Q1015 NOSIG


Station Type Date Time Source
OJAQ Decoded METAR 2019/10/21 02:00 UTC NOAA

Aqaba Airport, Jordan (OJAQ) 29-38N 035-01E 51M
Oct 20, 2019 - 10:00 PM EDT / 2019.10.21 0200 UTC
Wind: from the N (360 degrees) at 5 MPH (4 KT):0
Visibility: greater than 7 mile(s):0
Temperature: 77 F (25 C)
Dew Point: 59 F (15 C)
Relative Humidity: 53%
Pressure (altimeter): 29.97 in. Hg (1015 hPa)
ob: OJAQ 210200Z 36004KT CAVOK 25/15 Q1015 NOSIG
cycle: 2

Station Type Date Time Source
OJAQ TAF 2019/10/20 18:15 UTC NOAA

TAF TAF OJAQ 201700Z 2018/2124 36010KT 7000 NSC
TEMPO 2110/2115 36018KT 5000 BLDU NSC

Example: see airport list